Dades meteomassalio
Diari Summary for Juliol 23, 2017 Units:  Metric    English   Both
« Previous Day
Next Day »
Diari Semanal Mensual Anual Personalitzat
  Maxima: Minima: Mijana:
Temperatura: 29.3 °C 16.9 °C 22.4 °C
Rosada: 20.3 °C 14.5 °C 16.9 °C
Humitat: 89 % 54 % 72 %
Velocitat del vent: 49.9 km/h 0.0 km/h 6.1 km/h
Racha vent: 49.9 km/h - -
Vent:- - SSW
Pressio: 1019.2 hPa 1014.1 hPa -
Pluja: 8.9 mm    
Historical Graphs
 
 
Tabular Data for Juliol 23, 2017
Time Temperature Dew Point Pressure Wind Wind Speed Wind Gust Humidity Rainfall Rate (Hourly) solar Conditions
00:02 24.6 °C 20.3 °C 1014.1 hPa Calm     77 % 0.0 mm 0.0 W/m2 RA
00:07 24.5 °C 20.2 °C 1014.1 hPa Calm     77 % 0.0 mm 0.0 W/m2 CLR
00:12 24.4 °C 20.3 °C 1014.1 hPa Calm     78 % 0.0 mm 0.0 W/m2 CLR
00:17 24.3 °C 20.2 °C 1014.1 hPa Calm     78 % 0.0 mm 0.0 W/m2 CLR
00:22 24.1 °C 20.2 °C 1014.1 hPa Calm     79 % 0.0 mm 0.0 W/m2 CLR
00:27 24.1 °C 20.2 °C 1014.1 hPa Calm     79 % 0.0 mm 0.0 W/m2 CLR
00:32 23.9 °C 20.3 °C 1014.1 hPa Calm     80 % 0.0 mm 0.0 W/m2 CLR
00:37 23.9 °C 20.2 °C 1014.1 hPa Calm     80 % 0.0 mm 0.0 W/m2 CLR
00:39 23.8 °C 20.2 °C 1014.1 hPa Calm     80 % 0.0 mm 0.0 W/m2 CLR
00:44 23.6 °C 20.2 °C 1014.4 hPa Calm     81 % 0.0 mm 0.0 W/m2 CLR
00:49 23.5 °C 20.1 °C 1014.4 hPa Calm     81 % 0.0 mm 0.0 W/m2 CLR
00:54 23.4 °C 20.0 °C 1014.4 hPa Calm     81 % 0.0 mm 0.0 W/m2 CLR
00:59 23.4 °C 19.9 °C 1014.4 hPa Calm     81 % 0.0 mm 0.0 W/m2 CLR
01:04 23.4 °C 20.0 °C 1014.4 hPa Calm     81 % 0.0 mm 0.0 W/m2 CLR
01:09 23.5 °C 19.8 °C 1014.4 hPa Calm     80 % 0.0 mm 0.0 W/m2 CLR
01:14 23.5 °C 19.8 °C 1014.4 hPa Calm     80 % 0.0 mm 0.0 W/m2 CLR
01:19 23.4 °C 19.7 °C 1014.4 hPa Calm     80 % 0.0 mm 0.0 W/m2 CLR
01:24 23.3 °C 19.9 °C 1014.4 hPa Calm     81 % 0.0 mm 0.0 W/m2 CLR
01:29 23.3 °C 19.6 °C 1014.4 hPa Calm     80 % 0.0 mm 0.0 W/m2 CLR
01:34 23.5 °C 19.7 °C 1014.8 hPa Calm     79 % 0.0 mm 0.0 W/m2 CLR
01:39 23.7 °C 19.9 °C 1014.8 hPa Calm     79 % 0.0 mm 0.0 W/m2 CLR
01:44 23.6 °C 19.8 °C 1014.8 hPa Calm     79 % 0.0 mm 0.0 W/m2 CLR
01:49 23.4 °C 19.8 °C 1014.8 hPa Calm     80 % 0.0 mm 0.0 W/m2 CLR
01:54 23.1 °C 19.7 °C 1014.8 hPa Calm     81 % 0.0 mm 0.0 W/m2 CLR
01:59 22.9 °C 19.7 °C 1015.1 hPa Calm     82 % 0.0 mm 0.0 W/m2 CLR
02:04 22.7 °C 19.7 °C 1015.1 hPa Calm     83 % 0.0 mm 0.0 W/m2 CLR
02:09 22.6 °C 19.7 °C 1015.1 hPa Calm     84 % 0.0 mm 0.0 W/m2 CLR
02:14 22.4 °C 19.6 °C 1015.1 hPa Calm     84 % 0.0 mm 0.0 W/m2 CLR
02:19 22.2 °C 19.5 °C 1015.1 hPa Calm     85 % 0.0 mm 0.0 W/m2 CLR
02:24 22.0 °C 19.3 °C 1015.1 hPa Calm     85 % 0.0 mm 0.0 W/m2 CLR
02:29 21.9 °C 19.4 °C 1015.5 hPa Calm     86 % 0.0 mm 0.0 W/m2 CLR
02:34 21.9 °C 19.4 °C 1015.5 hPa NW 29.6 km/h 29.6 km/h 86 % 0.0 mm 0.0 W/m2 CLR
02:39 21.9 °C 18.3 °C 1015.8 hPa NW 25.9 km/h 25.9 km/h 80 % 0.0 mm 0.0 W/m2 CLR
02:44 21.7 °C 17.5 °C 1015.8 hPa NW 25.9 km/h 25.9 km/h 77 % 0.0 mm 0.0 W/m2 CLR
02:49 21.5 °C 17.1 °C 1015.8 hPa WNW 27.8 km/h 27.8 km/h 76 % 0.0 mm 0.0 W/m2 CLR
02:54 21.3 °C 16.7 °C 1015.8 hPa NNW 25.9 km/h 25.9 km/h 75 % 0.0 mm 0.0 W/m2 CLR
02:59 21.3 °C 16.4 °C 1015.8 hPa WNW 25.9 km/h 25.9 km/h 74 % 0.0 mm 0.0 W/m2 CLR
03:04 21.3 °C 16.3 °C 1015.8 hPa NW 18.5 km/h 18.5 km/h 73 % 0.0 mm 0.0 W/m2 CLR
03:09 21.3 °C 16.0 °C 1016.1 hPa NW 18.5 km/h 18.5 km/h 72 % 0.0 mm 0.0 W/m2 CLR
03:14 21.3 °C 16.2 °C 1016.1 hPa WNW 5.6 km/h 5.6 km/h 73 % 0.0 mm 0.0 W/m2 CLR
03:19 21.2 °C 16.1 °C 1016.1 hPa Calm     73 % 0.0 mm 0.0 W/m2 CLR
03:24 21.1 °C 16.1 °C 1016.1 hPa Calm     73 % 0.0 mm 0.0 W/m2 CLR
03:29 21.1 °C 16.1 °C 1016.1 hPa Calm     73 % 0.0 mm 0.0 W/m2 CLR
03:34 21.2 °C 15.9 °C 1016.1 hPa Calm     72 % 0.0 mm 0.0 W/m2 CLR
03:39 21.2 °C 15.7 °C 1016.1 hPa Calm     71 % 0.0 mm 0.0 W/m2 CLR
03:44 21.1 °C 15.7 °C 1016.5 hPa Calm     71 % 0.0 mm 0.0 W/m2 CLR
03:49 21.1 °C 15.8 °C 1016.5 hPa Calm     72 % 0.0 mm 0.0 W/m2 CLR
03:54 21.1 °C 15.6 °C 1016.5 hPa Calm     71 % 0.0 mm 0.0 W/m2 CLR
03:59 21.1 °C 15.8 °C 1016.8 hPa Calm     72 % 0.0 mm 0.0 W/m2 CLR
04:04 20.9 °C 15.7 °C 1016.5 hPa Calm     72 % 0.0 mm 0.0 W/m2 CLR
04:09 20.9 °C 15.7 °C 1016.5 hPa Calm     72 % 0.0 mm 0.0 W/m2 CLR
04:14 20.8 °C 15.6 °C 1016.8 hPa Calm     72 % 0.0 mm 0.0 W/m2 CLR
04:19 20.7 °C 15.5 °C 1016.8 hPa WSW 11.1 km/h 11.1 km/h 72 % 0.0 mm 0.0 W/m2 CLR
04:24 20.7 °C 15.2 °C 1016.8 hPa West 14.5 km/h 14.5 km/h 71 % 0.0 mm 0.0 W/m2 CLR
04:29 20.7 °C 15.3 °C 1016.8 hPa WSW 9.3 km/h 9.3 km/h 71 % 0.0 mm 0.0 W/m2 CLR
04:34 20.7 °C 15.1 °C 1016.8 hPa West 14.8 km/h 14.8 km/h 70 % 0.0 mm 0.0 W/m2 CLR
04:39 20.7 °C 15.0 °C 1016.8 hPa West 16.7 km/h 16.7 km/h 70 % 0.0 mm 0.0 W/m2 CLR
04:44 20.7 °C 15.0 °C 1016.8 hPa WSW 13.0 km/h 13.0 km/h 70 % 0.0 mm 0.0 W/m2 CLR
04:49 20.7 °C 15.0 °C 1016.8 hPa WNW 11.1 km/h 11.1 km/h 70 % 0.0 mm 0.0 W/m2 CLR
04:54 20.6 °C 14.9 °C 1016.8 hPa West 18.5 km/h 18.5 km/h 70 % 0.0 mm 0.0 W/m2 CLR
04:59 20.6 °C 14.9 °C 1016.8 hPa West 11.1 km/h 11.1 km/h 70 % 0.0 mm 0.0 W/m2 CLR
05:04 20.5 °C 14.8 °C 1017.2 hPa WSW 12.9 km/h 12.9 km/h 70 % 0.0 mm 0.0 W/m2 CLR
05:09 20.4 °C 15.0 °C 1016.8 hPa Calm     71 % 0.0 mm 0.0 W/m2 CLR
05:14 20.4 °C 14.7 °C 1017.2 hPa West 13.0 km/h 13.0 km/h 70 % 0.0 mm 0.0 W/m2 CLR
05:19 20.4 °C 14.9 °C 1017.2 hPa West 16.7 km/h 16.7 km/h 71 % 0.0 mm 0.0 W/m2 CLR
05:24 20.3 °C 14.8 °C 1017.2 hPa West 13.0 km/h 13.0 km/h 71 % 0.0 mm 0.0 W/m2 CLR
05:30 20.3 °C 14.8 °C 1017.2 hPa West 16.7 km/h 16.7 km/h 71 % 0.0 mm 0.0 W/m2 CLR
05:35 20.2 °C 14.8 °C 1017.2 hPa West 11.1 km/h 11.1 km/h 71 % 0.0 mm 0.0 W/m2 CLR
05:40 20.2 °C 14.8 °C 1017.5 hPa West 18.5 km/h 18.5 km/h 71 % 0.0 mm 0.0 W/m2 CLR
05:45 20.2 °C 14.7 °C 1017.5 hPa West 9.3 km/h   71 % 0.0 mm 0.0 W/m2 CLR
05:50 20.2 °C 14.7 °C 1017.5 hPa West 13.0 km/h 13.0 km/h 71 % 0.0 mm 0.0 W/m2 CLR
05:55 20.2 °C 14.7 °C 1017.5 hPa Calm     71 % 0.0 mm 0.0 W/m2 CLR
06:00 20.1 °C 14.7 °C 1017.5 hPa West 17.7 km/h 17.7 km/h 71 % 0.0 mm 0.0 W/m2 CLR
06:05 20.1 °C 14.7 °C 1017.8 hPa West 9.3 km/h 9.3 km/h 71 % 0.0 mm 0.0 W/m2 CLR
06:10 20.1 °C 14.7 °C 1017.8 hPa West 11.1 km/h 11.1 km/h 71 % 0.0 mm 0.0 W/m2 CLR
06:15 20.1 °C 14.7 °C 1017.8 hPa West 11.1 km/h 11.1 km/h 71 % 0.0 mm 0.0 W/m2 CLR
06:20 20.1 °C 14.6 °C 1017.8 hPa WSW 7.4 km/h 7.4 km/h 71 % 0.0 mm 0.0 W/m2 CLR
06:25 20.0 °C 14.8 °C 1017.8 hPa Calm   2.1 km/h 72 % 0.0 mm 0.0 W/m2 CLR
06:30 20.0 °C 14.8 °C 1017.8 hPa West 13.0 km/h 13.0 km/h 72 % 0.0 mm 0.0 W/m2 CLR
06:35 19.9 °C 14.7 °C 1017.8 hPa West 5.6 km/h 5.6 km/h 72 % 0.0 mm 0.0 W/m2 CLR
06:40 19.9 °C 14.7 °C 1017.8 hPa West 7.4 km/h 7.4 km/h 72 % 0.0 mm 0.0 W/m2 OVC
06:45 19.9 °C 14.7 °C 1017.8 hPa Calm     72 % 0.0 mm 0.0 W/m2 OVC
06:50 19.9 °C 14.7 °C 1017.8 hPa Calm     72 % 0.0 mm 0.0 W/m2 OVC
06:55 19.8 °C 14.6 °C 1017.8 hPa WSW 4.8 km/h 4.8 km/h 72 % 0.0 mm 5.0 W/m2 OVC
07:00 19.8 °C 14.6 °C 1018.2 hPa Calm     72 % 0.0 mm 7.0 W/m2 BKN
07:05 19.8 °C 14.6 °C 1018.2 hPa WSW 5.6 km/h 5.6 km/h 72 % 0.0 mm 9.0 W/m2 BKN
07:10 19.8 °C 14.6 °C 1018.2 hPa WSW 3.7 km/h   72 % 0.0 mm 11.0 W/m2 BKN
07:15 19.8 °C 14.6 °C 1018.2 hPa Calm     72 % 0.0 mm 12.0 W/m2 BKN
07:20 19.8 °C 14.8 °C 1018.2 hPa Calm     73 % 0.0 mm 16.0 W/m2 BKN
07:25 19.8 °C 14.8 °C 1018.2 hPa Calm     73 % 0.0 mm 19.0 W/m2 BKN
07:30 19.7 °C 14.7 °C 1018.2 hPa Calm     73 % 0.0 mm 21.0 W/m2 BKN
07:35 19.8 °C 14.8 °C 1018.5 hPa Calm     73 % 0.0 mm 21.0 W/m2 BKN
07:40 19.8 °C 14.8 °C 1018.5 hPa Calm     73 % 0.0 mm 21.0 W/m2 BKN
07:45 19.8 °C 14.8 °C 1018.2 hPa Calm     73 % 0.0 mm 28.0 W/m2 BKN
07:50 19.8 °C 14.8 °C 1018.2 hPa Calm     73 % 0.0 mm 37.0 W/m2 BKN
07:55 19.8 °C 14.6 °C 1018.2 hPa Calm   0.2 km/h 72 % 0.0 mm 33.0 W/m2 BKN
08:00 19.9 °C 14.9 °C 1018.2 hPa Calm     73 % 0.0 mm 44.0 W/m2 BKN
08:05 19.9 °C 14.7 °C 1018.5 hPa Calm   1.0 km/h 72 % 0.0 mm 44.0 W/m2 BKN
08:10 20.0 °C 14.8 °C 1018.5 hPa Calm     72 % 0.0 mm 47.0 W/m2 BKN
08:15 20.1 °C 14.8 °C 1018.5 hPa Calm     72 % 0.0 mm 51.0 W/m2 SCT
08:20 20.1 °C 14.9 °C 1018.5 hPa Calm     72 % 0.0 mm 51.0 W/m2 SCT
08:25 20.2 °C 14.9 °C 1018.5 hPa Calm     72 % 0.0 mm 67.0 W/m2 SCT
08:30 20.2 °C 15.0 °C 1018.5 hPa Calm     72 % 0.0 mm 69.0 W/m2 SCT
08:35 20.2 °C 14.8 °C 1018.5 hPa West 7.4 km/h 7.4 km/h 71 % 0.0 mm 51.0 W/m2 SCT
08:40 20.3 °C 14.8 °C 1018.2 hPa NW 8.0 km/h 8.0 km/h 71 % 0.0 mm 109.0 W/m2 FEW
08:45 20.4 °C 14.7 °C 1018.5 hPa WNW 11.1 km/h 11.1 km/h 70 % 0.0 mm 70.0 W/m2 CLR
08:50 20.4 °C 14.7 °C 1018.5 hPa NW 11.1 km/h 11.1 km/h 70 % 0.0 mm 88.0 W/m2 CLR
08:55 20.4 °C 14.8 °C 1018.8 hPa NW 11.1 km/h 11.1 km/h 70 % 0.0 mm 100.0 W/m2 FEW
09:00 20.4 °C 14.8 °C 1018.5 hPa WNW 7.4 km/h 7.4 km/h 70 % 0.0 mm 132.0 W/m2 CLR
09:05 20.6 °C 14.7 °C 1018.8 hPa West 9.7 km/h 9.7 km/h 69 % 0.0 mm 114.0 W/m2 CLR
09:10 20.5 °C 14.6 °C 1018.5 hPa West 5.6 km/h 5.6 km/h 69 % 0.0 mm 167.0 W/m2 CLR
09:15 20.6 °C 14.7 °C 1018.8 hPa WNW 7.4 km/h 7.4 km/h 69 % 0.0 mm 151.0 W/m2 CLR
09:20 20.6 °C 14.7 °C 1018.8 hPa WNW 3.7 km/h 3.7 km/h 69 % 0.0 mm 169.0 W/m2 CLR
09:25 20.7 °C 14.8 °C 1018.8 hPa WNW 9.3 km/h 9.3 km/h 69 % 0.0 mm 146.0 W/m2 CLR
09:30 20.7 °C 14.8 °C 1019.2 hPa WNW 9.7 km/h 9.7 km/h 69 % 0.0 mm 120.0 W/m2 CLR
09:35 20.6 °C 14.5 °C 1019.2 hPa WNW 7.4 km/h 7.4 km/h 68 % 0.0 mm 153.0 W/m2 CLR
09:40 20.6 °C 14.5 °C 1019.2 hPa WNW 13.0 km/h 13.0 km/h 68 % 0.0 mm 142.0 W/m2 CLR
09:45 20.7 °C 14.8 °C 1018.8 hPa WNW 7.4 km/h 7.4 km/h 69 % 0.0 mm 163.0 W/m2 CLR
09:50 20.7 °C 14.6 °C 1019.2 hPa West 11.1 km/h 11.1 km/h 68 % 0.0 mm 158.0 W/m2 CLR
09:55 20.8 °C 14.7 °C 1019.2 hPa West 7.4 km/h 7.4 km/h 68 % 0.0 mm 197.0 W/m2 CLR
10:00 20.8 °C 14.7 °C 1019.2 hPa West 11.1 km/h 11.1 km/h 68 % 0.0 mm 239.0 W/m2 CLR
10:05 20.9 °C 14.8 °C 1019.2 hPa WNW 3.7 km/h 3.7 km/h 68 % 0.0 mm 225.0 W/m2 CLR
10:10 21.2 °C 14.8 °C 1018.8 hPa WSW 9.7 km/h 9.7 km/h 67 % 0.0 mm 360.0 W/m2 CLR
10:15 21.3 °C 15.1 °C 1018.8 hPa WNW 13.0 km/h 13.0 km/h 68 % 0.0 mm 387.0 W/m2 CLR
10:20 21.6 °C 15.0 °C 1018.8 hPa WSW 13.0 km/h 13.0 km/h 66 % 0.0 mm 371.0 W/m2 CLR
10:25 21.6 °C 14.7 °C 1018.8 hPa West 13.0 km/h 13.0 km/h 65 % 0.0 mm 211.0 W/m2 CLR
10:30 21.4 °C 14.8 °C 1018.8 hPa West 7.4 km/h 7.4 km/h 66 % 0.0 mm 134.0 W/m2 CLR
10:35 21.4 °C 14.8 °C 1018.8 hPa West 1.6 km/h 1.6 km/h 66 % 0.0 mm 181.0 W/m2 CLR
10:40 21.6 °C 15.2 °C 1018.8 hPa West 6.4 km/h 6.4 km/h 67 % 0.0 mm 301.0 W/m2 CLR
10:45 21.7 °C 14.8 °C 1018.8 hPa West 9.3 km/h 9.3 km/h 65 % 0.0 mm 221.0 W/m2 CLR
10:50 21.8 °C 15.2 °C 1018.8 hPa WNW 11.1 km/h 11.1 km/h 66 % 0.0 mm 533.0 W/m2 CLR
10:55 21.9 °C 14.8 °C 1018.8 hPa West 13.0 km/h 13.0 km/h 64 % 0.0 mm 250.0 W/m2 CLR
11:00 21.9 °C 14.8 °C 1018.5 hPa West 6.4 km/h 6.4 km/h 64 % 0.0 mm 376.0 W/m2 CLR
11:05 22.2 °C 15.1 °C 1018.5 hPa Calm     64 % 0.0 mm 763.0 W/m2 CLR
11:11 22.5 °C 15.3 °C 1018.5 hPa Calm     64 % 0.0 mm 432.0 W/m2 CLR
11:16 22.8 °C 15.4 °C 1018.5 hPa Calm   0.5 km/h 63 % 0.0 mm 496.0 W/m2 CLR
11:21 23.2 °C 15.2 °C 1018.5 hPa Calm     61 % 0.0 mm 327.0 W/m2 CLR
11:26 23.1 °C 15.1 °C 1018.8 hPa West 8.0 km/h 8.0 km/h 61 % 0.0 mm 309.0 W/m2 CLR
11:31 22.9 °C 15.3 °C 1018.8 hPa Calm     62 % 0.0 mm 334.0 W/m2 CLR
11:36 23.0 °C 15.3 °C 1018.8 hPa WNW 9.3 km/h 9.3 km/h 62 % 0.0 mm 413.0 W/m2 CLR
11:41 23.1 °C 15.4 °C 1018.5 hPa Calm     62 % 0.0 mm 527.0 W/m2 CLR
11:46 23.3 °C 15.3 °C 1018.5 hPa NNW 1.9 km/h   61 % 0.0 mm 621.0 W/m2 CLR
11:51 23.6 °C 15.3 °C 1018.5 hPa Calm     60 % 0.0 mm 888.0 W/m2 CLR
11:56 23.8 °C 15.6 °C 1018.5 hPa SSW 1.9 km/h 1.9 km/h 60 % 0.0 mm 888.0 W/m2 CLR
12:01 24.1 °C 15.8 °C 1018.5 hPa Calm     60 % 0.0 mm 492.0 W/m2 CLR
12:06 24.5 °C 15.4 °C 1018.5 hPa Calm     57 % 0.0 mm 506.0 W/m2 CLR
12:11 24.7 °C 15.8 °C 1018.5 hPa Calm     58 % 0.0 mm 589.0 W/m2 CLR
12:16 25.0 °C 16.4 °C 1018.5 hPa Calm     59 % 0.0 mm 969.0 W/m2 CLR
12:21 25.3 °C 15.9 °C 1018.5 hPa Calm     56 % 0.0 mm 364.0 W/m2 CLR
12:26 25.3 °C 16.2 °C 1018.2 hPa Calm     57 % 0.0 mm 605.0 W/m2 CLR
12:31 25.4 °C 16.0 °C 1018.2 hPa Calm     56 % 0.0 mm 856.0 W/m2 CLR
12:36 25.6 °C 16.4 °C 1017.8 hPa NE 5.6 km/h 5.6 km/h 57 % 0.0 mm 844.0 W/m2 CLR
12:41 25.8 °C 16.4 °C 1017.8 hPa Calm     56 % 0.0 mm 868.0 W/m2 CLR
12:46 25.9 °C 16.4 °C 1017.8 hPa NNE 3.2 km/h 3.2 km/h 56 % 0.0 mm 814.0 W/m2 CLR
12:51 26.1 °C 16.6 °C 1017.8 hPa Calm     56 % 0.0 mm 861.0 W/m2 CLR
12:56 26.4 °C 16.9 °C 1017.8 hPa Calm     56 % 0.0 mm 874.0 W/m2 CLR
13:01 26.5 °C 16.7 °C 1017.8 hPa NE 1.9 km/h 1.9 km/h 55 % 0.0 mm 821.0 W/m2 CLR
13:06 26.3 °C 16.6 °C 1018.2 hPa Calm     55 % 0.0 mm 833.0 W/m2 CLR
13:11 26.3 °C 16.8 °C 1017.8 hPa NE 9.3 km/h 9.3 km/h 56 % 0.0 mm 837.0 W/m2 CLR
13:16 26.4 °C 16.9 °C 1017.8 hPa Calm     56 % 0.0 mm 680.0 W/m2 CLR
13:21 26.7 °C 16.9 °C 1017.8 hPa Calm     55 % 0.0 mm 536.0 W/m2 CLR
13:26 26.9 °C 16.8 °C 1017.8 hPa Calm     54 % 0.0 mm 480.0 W/m2 CLR
13:31 27.2 °C 17.1 °C 1017.8 hPa ESE 7.4 km/h 7.4 km/h 54 % 0.0 mm 512.0 W/m2 CLR
13:36 27.2 °C 17.1 °C 1017.5 hPa Calm     54 % 0.0 mm 454.0 W/m2 CLR
13:41 27.2 °C 17.1 °C 1017.5 hPa ENE 14.8 km/h 14.8 km/h 54 % 0.0 mm 454.0 W/m2 CLR
13:46 27.2 °C 17.3 °C 1017.5 hPa ENE 16.7 km/h 16.7 km/h 55 % 0.0 mm 758.0 W/m2 CLR
13:51 27.2 °C 17.1 °C 1017.2 hPa NE 11.1 km/h 11.1 km/h 54 % 0.0 mm 896.0 W/m2 CLR
13:56 27.4 °C 17.3 °C 1017.2 hPa NE 14.8 km/h 14.8 km/h 54 % 0.0 mm 902.0 W/m2 CLR
14:01 27.5 °C 17.4 °C 1017.2 hPa North 18.5 km/h 18.5 km/h 54 % 0.0 mm 902.0 W/m2 CLR
14:06 27.6 °C 17.4 °C 1016.8 hPa NNE 11.1 km/h 11.1 km/h 54 % 0.0 mm 939.0 W/m2 CLR
14:12 27.6 °C 17.8 °C 1016.8 hPa NE 18.5 km/h 18.5 km/h 55 % 0.0 mm 944.0 W/m2 CLR
14:17 27.8 °C 17.6 °C 1016.8 hPa NE 16.7 km/h 16.7 km/h 54 % 0.0 mm 473.0 W/m2 CLR
14:22 27.7 °C 17.5 °C 1016.8 hPa ENE 16.1 km/h 16.1 km/h 54 % 0.0 mm 520.0 W/m2 CLR
14:27 27.6 °C 17.8 °C 1016.8 hPa East 3.7 km/h 3.7 km/h 55 % 0.0 mm 364.0 W/m2 CLR
14:32 27.7 °C 17.8 °C 1016.8 hPa ENE 13.0 km/h 13.0 km/h 55 % 0.0 mm 954.0 W/m2 CLR
14:37 28.0 °C 17.8 °C 1016.5 hPa NNE 1.9 km/h   54 % 0.0 mm 1063.0 W/m2 CLR
14:42 28.6 °C 18.6 °C 1016.5 hPa ENE 7.4 km/h 7.4 km/h 55 % 0.0 mm 608.0 W/m2 CLR
14:47 28.8 °C 19.2 °C 1016.5 hPa East 9.3 km/h 9.3 km/h 56 % 0.0 mm 1018.0 W/m2 CLR
14:52 29.3 °C 19.3 °C 1016.5 hPa ENE 13.0 km/h 13.0 km/h 55 % 0.0 mm 1169.0 W/m2 CLR
14:57 29.3 °C 19.3 °C 1016.1 hPa ESE 18.5 km/h 18.5 km/h 55 % 0.0 mm 364.0 W/m2 CLR
15:02 28.4 °C 19.3 °C 1016.1 hPa NE 13.0 km/h 13.0 km/h 58 % 0.0 mm 223.0 W/m2 CLR
15:03 28.3 °C 19.3 °C 1016.1 hPa ENE 13.0 km/h 13.0 km/h 58 % 0.0 mm 223.0 W/m2 CLR
15:08 28.0 °C 19.5 °C 1016.1 hPa ENE 18.5 km/h 18.5 km/h 60 % 0.0 mm 139.0 W/m2 CLR
15:13 27.7 °C 19.2 °C 1016.1 hPa East 11.1 km/h 11.1 km/h 60 % 0.0 mm 125.0 W/m2 CLR
15:18 27.6 °C 19.4 °C 1016.1 hPa ENE 12.9 km/h 12.9 km/h 61 % 0.0 mm 114.0 W/m2 CLR
15:23 27.5 °C 19.3 °C 1016.1 hPa East 14.8 km/h 14.8 km/h 61 % 0.0 mm 104.0 W/m2 CLR
15:28 27.3 °C 19.3 °C 1016.1 hPa ENE 14.8 km/h 14.8 km/h 62 % 0.0 mm 97.0 W/m2 CLR
15:33 27.1 °C 19.2 °C 1015.8 hPa ENE 11.1 km/h 11.1 km/h 62 % 0.0 mm 79.0 W/m2 CLR
15:38 27.1 °C 19.2 °C 1015.8 hPa ENE 14.5 km/h 14.5 km/h 62 % 0.0 mm 70.0 W/m2 FEW
15:43 27.0 °C 19.1 °C 1016.1 hPa ESE 18.5 km/h 18.5 km/h 62 % 0.0 mm 51.0 W/m2 FEW
15:48 27.0 °C 19.1 °C 1016.1 hPa East 16.1 km/h 16.1 km/h 62 % 0.0 mm 42.0 W/m2 SCT
15:53 26.9 °C 19.1 °C 1016.1 hPa ENE 11.1 km/h 11.1 km/h 62 % 0.0 mm 19.0 W/m2 BKN
15:58 26.9 °C 19.2 °C 1016.5 hPa NNE 18.5 km/h 18.5 km/h 63 % 0.0 mm 18.0 W/m2 BKN
16:03 26.4 °C 20.2 °C 1016.8 hPa NW 40.2 km/h 40.2 km/h 69 % 0.0 mm 5.0 W/m2 BKN
16:08 24.4 °C 20.1 °C 1017.2 hPa ENE 20.4 km/h 20.4 km/h 77 % 0.3 mm 5.0 W/m2 RA
16:13 23.7 °C 20.3 °C 1017.5 hPa NNW 32.2 km/h 32.2 km/h 81 % 1.5 mm 0.0 W/m2 RA
16:18 22.8 °C 20.0 °C 1018.2 hPa NNW 29.6 km/h 29.6 km/h 84 % 2.0 mm 0.0 W/m2 RA
16:23 22.5 °C 19.8 °C 1018.2 hPa Calm     85 % 5.8 mm 5.0 W/m2 RA
16:28 22.3 °C 19.4 °C 1018.2 hPa NW 16.7 km/h 16.7 km/h 84 % 7.4 mm 5.0 W/m2 RA
16:31 22.1 °C 18.8 °C 1017.8 hPa Calm     82 % 7.6 mm 5.0 W/m2 RA
16:40 21.9 °C 19.1 °C 1017.8 hPa Calm     84 % 7.9 mm 5.0 W/m2 RA
16:45 21.9 °C 19.3 °C 1018.2 hPa SE 9.7 km/h 9.7 km/h 85 % 7.9 mm 5.0 W/m2 OVC
16:50 21.5 °C 18.9 °C 1018.2 hPa SE 9.3 km/h 9.3 km/h 85 % 8.1 mm 5.0 W/m2 RA
16:55 21.1 °C 18.4 °C 1018.2 hPa South 29.6 km/h 29.6 km/h 85 % 8.1 mm 5.0 W/m2 OVC
17:00 19.3 °C 16.6 °C 1017.2 hPa South 33.3 km/h 33.3 km/h 84 % 8.1 mm 7.0 W/m2 BKN
17:05 18.8 °C 16.4 °C 1017.2 hPa SSE 41.8 km/h 41.8 km/h 86 % 8.4 mm 11.0 W/m2 RA
17:10 18.1 °C 15.8 °C 1015.5 hPa SSE 43.4 km/h 43.4 km/h 87 % 8.4 mm 14.0 W/m2 RA
17:15 17.3 °C 14.9 °C 1014.8 hPa SSE 49.9 km/h 49.9 km/h 86 % 7.1 mm 21.0 W/m2 BKN
17:20 16.9 °C 14.8 °C 1015.8 hPa South 29.6 km/h 29.6 km/h 87 % 5.8 mm 35.0 W/m2 BKN
17:25 17.1 °C 14.7 °C 1015.8 hPa South 25.9 km/h 25.9 km/h 86 % 2.5 mm 56.0 W/m2 BKN
17:30 17.3 °C 14.9 °C 1015.8 hPa WSW 13.0 km/h 13.0 km/h 86 % 1.5 mm 188.0 W/m2 SCT
17:35 17.5 °C 15.3 °C 1016.1 hPa Calm   0.8 km/h 87 % 1.0 mm 267.0 W/m2 CLR
17:40 17.7 °C 15.6 °C 1016.5 hPa Calm     87 % 0.8 mm 824.0 W/m2 CLR
17:45 18.2 °C 15.8 °C 1016.5 hPa WSW 6.4 km/h 6.4 km/h 86 % 0.8 mm 677.0 W/m2 CLR
17:50 18.7 °C 16.3 °C 1016.1 hPa SSE 11.1 km/h 11.1 km/h 86 % 0.5 mm 573.0 W/m2 CLR
17:55 19.1 °C 16.3 °C 1016.1 hPa SSW 18.5 km/h 18.5 km/h 84 % 0.5 mm 555.0 W/m2 CLR
18:00 19.4 °C 16.4 °C 1016.1 hPa South 16.7 km/h 16.7 km/h 83 % 0.5 mm 541.0 W/m2 CLR
18:05 19.7 °C 16.5 °C 1016.1 hPa South 14.5 km/h 14.5 km/h 82 % 0.5 mm 529.0 W/m2 CLR
18:10 19.9 °C 16.7 °C 1016.1 hPa South 1.9 km/h   82 % 0.0 mm 513.0 W/m2 CLR
18:15 20.2 °C 17.2 °C 1016.1 hPa SSW 5.6 km/h 5.6 km/h 83 % 0.0 mm 490.0 W/m2 CLR
18:20 20.5 °C 17.3 °C 1016.1 hPa Calm     82 % 0.0 mm 480.0 W/m2 CLR
18:25 20.8 °C 17.2 °C 1015.8 hPa SSW 5.6 km/h   80 % 0.0 mm 464.0 W/m2 CLR
18:30 21.1 °C 17.4 °C 1015.5 hPa Calm     80 % 0.0 mm 446.0 W/m2 CLR
18:35 21.3 °C 17.6 °C 1015.5 hPa WSW 7.4 km/h   79 % 0.0 mm 434.0 W/m2 CLR
18:40 21.7 °C 17.7 °C 1015.5 hPa Calm     78 % 0.0 mm 415.0 W/m2 CLR
18:45 21.9 °C 17.1 °C 1015.1 hPa Calm     74 % 0.0 mm 399.0 W/m2 CLR
18:50 22.0 °C 17.4 °C 1015.1 hPa Calm     75 % 0.0 mm 383.0 W/m2 CLR
18:55 22.3 °C 17.6 °C 1015.1 hPa Calm     75 % 0.0 mm 369.0 W/m2 CLR
19:01 22.5 °C 17.4 °C 1015.1 hPa Calm     73 % 0.0 mm 355.0 W/m2 CLR
19:05 22.7 °C 17.1 °C 1015.1 hPa Calm     71 % 0.0 mm 338.0 W/m2 CLR
19:10 22.9 °C 17.1 °C 1015.1 hPa Calm     70 % 0.0 mm 322.0 W/m2 CLR
19:16 23.1 °C 16.9 °C 1015.1 hPa Calm     68 % 0.0 mm 308.0 W/m2 CLR
19:21 23.3 °C 16.8 °C 1015.1 hPa Calm     67 % 0.0 mm 294.0 W/m2 CLR
19:26 23.7 °C 17.2 °C 1014.8 hPa Calm   0.3 km/h 67 % 0.0 mm 278.0 W/m2 CLR
19:31 23.8 °C 16.8 °C 1014.8 hPa Calm     65 % 0.0 mm 262.0 W/m2 CLR
19:36 24.1 °C 17.6 °C 1014.8 hPa Calm     67 % 0.0 mm 248.0 W/m2 CLR
19:41 24.2 °C 17.4 °C 1014.8 hPa Calm     66 % 0.0 mm 169.0 W/m2 CLR
19:46 24.1 °C 17.6 °C 1014.8 hPa Calm     67 % 0.0 mm 188.0 W/m2 CLR
19:51 23.8 °C 17.5 °C 1014.8 hPa Calm     68 % 0.0 mm 144.0 W/m2 CLR
19:56 23.8 °C 17.3 °C 1014.8 hPa Calm     67 % 0.0 mm 132.0 W/m2 CLR
20:01 23.9 °C 17.6 °C 1014.8 hPa Calm     68 % 0.0 mm 174.0 W/m2 CLR
20:06 24.1 °C 17.8 °C 1014.8 hPa Calm     68 % 0.0 mm 160.0 W/m2 CLR
20:11 24.3 °C 17.8 °C 1015.1 hPa Calm     67 % 0.0 mm 139.0 W/m2 CLR
20:16 24.6 °C 17.8 °C 1015.1 hPa Calm     66 % 0.0 mm 98.0 W/m2 CLR
20:21 24.6 °C 18.1 °C 1015.1 hPa Calm     67 % 0.0 mm 42.0 W/m2 CLR
20:26 24.4 °C 18.1 °C 1015.1 hPa Calm     68 % 0.0 mm 40.0 W/m2 SCT
20:31 24.3 °C 18.2 °C 1015.1 hPa Calm     69 % 0.0 mm 67.0 W/m2 FEW
20:36 24.3 °C 18.2 °C 1015.1 hPa Calm     69 % 0.0 mm 54.0 W/m2 SCT
20:41 24.5 °C 19.1 °C 1015.1 hPa Calm     72 % 0.0 mm 54.0 W/m2 SCT
20:46 24.4 °C 18.6 °C 1015.1 hPa Calm     70 % 0.0 mm 49.0 W/m2 SCT
20:51 24.2 °C 18.2 °C 1015.1 hPa Calm     69 % 0.0 mm 46.0 W/m2 SCT
20:56 24.1 °C 18.2 °C 1015.1 hPa Calm     70 % 0.0 mm 37.0 W/m2 BKN
21:01 23.9 °C 18.6 °C 1015.1 hPa Calm     72 % 0.0 mm 25.0 W/m2 BKN
21:06 23.6 °C 18.2 °C 1015.1 hPa Calm     72 % 0.0 mm 18.0 W/m2 BKN
21:11 23.2 °C 18.1 °C 1015.1 hPa WSW 7.4 km/h 7.4 km/h 73 % 0.0 mm 12.0 W/m2 BKN
21:16 23.0 °C 18.3 °C 1015.5 hPa Calm     75 % 0.3 mm 9.0 W/m2 RA
21:21 22.8 °C 18.3 °C 1015.5 hPa SW 5.6 km/h 5.6 km/h 76 % 0.3 mm 5.0 W/m2
21:26 22.6 °C 18.2 °C 1015.5 hPa Calm     76 % 0.3 mm 0.0 W/m2 CLR
21:31 22.6 °C 17.9 °C 1015.5 hPa Calm     75 % 0.3 mm 0.0 W/m2 OVC
21:36 22.5 °C 17.8 °C 1015.5 hPa Calm     75 % 0.3 mm 0.0 W/m2 CLR
21:41 22.4 °C 17.8 °C 1015.8 hPa Calm     75 % 0.3 mm 0.0 W/m2 CLR
21:46 22.4 °C 17.7 °C 1015.8 hPa Calm     75 % 0.3 mm 0.0 W/m2 CLR
21:51 22.4 °C 17.8 °C 1015.8 hPa Calm     75 % 0.3 mm 0.0 W/m2 CLR
21:56 22.4 °C 17.9 °C 1015.8 hPa Calm     76 % 0.3 mm 0.0 W/m2 CLR
22:01 22.3 °C 17.8 °C 1016.1 hPa Calm     76 % 0.3 mm 0.0 W/m2 CLR
22:06 22.2 °C 17.9 °C 1016.1 hPa Calm     77 % 0.3 mm 0.0 W/m2 CLR
22:11 22.1 °C 18.1 °C 1016.1 hPa Calm     78 % 0.3 mm 0.0 W/m2 CLR
22:16 21.9 °C 18.1 °C 1016.1 hPa Calm     79 % 0.0 mm 0.0 W/m2 CLR
22:21 21.7 °C 18.1 °C 1016.1 hPa Calm     80 % 0.0 mm 0.0 W/m2 CLR
22:26 21.5 °C 18.1 °C 1016.5 hPa Calm     81 % 0.0 mm 0.0 W/m2 CLR
22:31 21.4 °C 18.0 °C 1016.5 hPa Calm     81 % 0.0 mm 0.0 W/m2 CLR
22:36 21.3 °C 18.1 °C 1016.5 hPa Calm     82 % 0.0 mm 0.0 W/m2 CLR
22:41 21.2 °C 18.2 °C 1016.8 hPa Calm     83 % 0.0 mm 0.0 W/m2 CLR
22:46 20.9 °C 18.1 °C 1016.5 hPa Calm     84 % 0.0 mm 0.0 W/m2 CLR
22:51 20.7 °C 18.3 °C 1016.8 hPa Calm     86 % 0.0 mm 0.0 W/m2 CLR
22:56 20.6 °C 18.1 °C 1016.8 hPa Calm     86 % 0.0 mm 0.0 W/m2 CLR
23:01 20.4 °C 17.9 °C 1016.8 hPa Calm     86 % 0.0 mm 0.0 W/m2 CLR
23:03 20.3 °C 18.1 °C 1016.8 hPa Calm     87 % 0.0 mm 0.0 W/m2 CLR
23:08 20.3 °C 18.1 °C 1016.8 hPa Calm     87 % 0.0 mm 0.0 W/m2 CLR
23:13 20.2 °C 18.0 °C 1016.8 hPa Calm     87 % 0.0 mm 0.0 W/m2 CLR
23:18 20.2 °C 18.1 °C 1016.8 hPa Calm     88 % 0.0 mm 0.0 W/m2 CLR
23:23 20.1 °C 18.1 °C 1016.8 hPa Calm     88 % 0.0 mm 0.0 W/m2 CLR
23:28 20.0 °C 17.9 °C 1016.8 hPa Calm     88 % 0.0 mm 0.0 W/m2 CLR
23:29 20.0 °C 17.9 °C 1016.8 hPa Calm     88 % 0.0 mm 0.0 W/m2 CLR
23:34 19.9 °C 17.8 °C 1016.8 hPa Calm     88 % 0.0 mm 0.0 W/m2 CLR
23:39 19.8 °C 17.9 °C 1016.8 hPa Calm     89 % 0.0 mm 0.0 W/m2 CLR
23:44 19.7 °C 17.8 °C 1016.8 hPa WSW 3.7 km/h   89 % 0.0 mm 0.0 W/m2 CLR
23:49 19.6 °C 17.7 °C 1017.2 hPa Calm     89 % 0.0 mm 0.0 W/m2 CLR
23:54 19.6 °C 17.7 °C 1017.2 hPa Calm     89 % 0.0 mm 0.0 W/m2 CLR
23:59 19.6 °C 17.7 °C 1017.2 hPa Calm     89 % 0.0 mm 0.0 W/m2 CLR
Lo Temps de Massalio
Compliments of Weather Underground - 1.25 mb